Time;durP1;ratioP1;P1;durP2;ratioP2;P2;SDS_P1;SDS_P2;PMS_P1;PMS_P2;Temp;Humidity;BMP_temperature;BMP_pressure;BME280_temperature;BME280_humidity;BME280_pressure;Samples;Min_cycle;Max_cycle;Signal;HPM_P1;HPM_P2
2021/12/03 00:01:20;;;;;;;5.03;2.08;;;;;;;1.98;90.46;101166.66;5021346;28;20040;-79
2021/12/03 00:03:45;;;;;;;1.60;1.50;;;;;;;1.98;90.62;101154.59;5038548;28;20045;-80
2021/12/03 00:06:11;;;;;;;2.60;1.50;;;;;;;2.00;90.46;101167.53;5019957;28;20044;-80
2021/12/03 00:08:36;;;;;;;7.78;2.10;;;;;;;1.99;90.48;101161.50;5038322;28;20367;-80
2021/12/03 00:11:03;;;;;;;2.67;2.00;;;;;;;1.99;90.47;101177.00;5037581;28;20341;-80
2021/12/03 00:13:29;;;;;;;2.05;1.50;;;;;;;1.99;90.47;101174.44;5017785;28;20033;-80
2021/12/03 00:15:56;;;;;;;4.20;1.80;;;;;;;2.00;90.64;101186.50;5021726;28;20087;-80
2021/12/03 00:18:21;;;;;;;6.80;1.27;;;;;;;2.00;90.42;101176.16;5037710;28;20045;-80
2021/12/03 00:20:46;;;;;;;5.85;1.52;;;;;;;2.00;90.39;101176.16;5038153;28;20029;-80
2021/12/03 00:23:12;;;;;;;4.10;2.08;;;;;;;2.01;90.52;101174.44;5038096;28;20446;-80
2021/12/03 00:25:38;;;;;;;1.52;1.42;;;;;;;2.03;90.69;101173.56;5019636;28;20392;-79
2021/12/03 00:31:18;;;;;;;4.60;1.70;;;;;;;2.05;90.62;101177.00;5038242;28;20052;-79
2021/12/03 00:33:43;;;;;;;3.53;1.33;;;;;;;2.05;90.70;101184.75;5016314;28;20025;-79
2021/12/03 00:36:09;;;;;;;4.40;1.38;;;;;;;2.05;90.66;101179.59;5039278;28;20249;-80
2021/12/03 00:38:39;;;;;;;1.92;1.10;;;;;;;2.06;90.74;101170.97;5033269;28;20039;-79
2021/12/03 00:41:06;;;;;;;2.97;1.10;;;;;;;2.07;90.69;101179.59;5027020;28;20029;-79
2021/12/03 00:43:32;;;;;;;3.13;1.23;;;;;;;2.08;90.61;101181.31;5023926;28;20043;-79
2021/12/03 00:46:04;;;;;;;5.00;1.40;;;;;;;2.08;90.79;101176.16;5057810;28;20041;-79
2021/12/03 00:48:30;;;;;;;3.60;1.15;;;;;;;2.08;90.85;101184.75;5039588;28;20032;-79
2021/12/03 00:50:55;;;;;;;3.28;1.15;;;;;;;2.08;90.79;101177.00;5039726;28;20224;-79
2021/12/03 00:53:21;;;;;;;1.92;1.00;;;;;;;2.09;90.94;101173.56;5026552;28;20036;-79
2021/12/03 00:55:46;;;;;;;2.22;0.95;;;;;;;2.09;91.04;101176.16;5007521;28;20040;-79
2021/12/03 00:58:11;;;;;;;3.67;1.00;;;;;;;2.11;91.21;101177.00;5041146;28;20033;-79
2021/12/03 01:00:37;;;;;;;5.15;1.10;;;;;;;2.12;91.17;101177.88;5058099;28;20044;-79
2021/12/03 01:03:02;;;;;;;2.22;1.30;;;;;;;2.14;91.40;101173.56;5058131;28;20041;-79
2021/12/03 01:05:28;;;;;;;2.25;1.10;;;;;;;2.18;91.46;101171.84;5024195;28;20044;-79
2021/12/03 01:07:54;;;;;;;3.03;1.02;;;;;;;2.16;91.42;101166.66;5058125;28;20075;-79
2021/12/03 01:10:19;;;;;;;3.00;1.27;;;;;;;2.16;91.65;101169.25;5040122;28;20095;-79
2021/12/03 01:12:44;;;;;;;1.38;0.80;;;;;;;2.16;91.09;101163.22;5023274;28;20041;-79
2021/12/03 01:15:12;;;;;;;0.90;0.80;;;;;;;2.17;91.08;101157.22;5058518;28;20303;-79
2021/12/03 01:17:37;;;;;;;3.83;1.05;;;;;;;2.19;91.40;101152.91;5044529;28;20033;-79
2021/12/03 01:20:06;;;;;;;1.10;0.85;;;;;;;2.19;91.26;101158.91;5057401;28;20041;-79
2021/12/03 01:22:31;;;;;;;6.15;1.33;;;;;;;2.17;91.37;101150.31;5058054;28;20048;-79
2021/12/03 01:24:57;;;;;;;1.80;0.90;;;;;;;2.17;91.20;101154.63;5041053;28;20092;-79
2021/12/03 01:27:22;;;;;;;2.15;1.25;;;;;;;2.18;91.31;101153.75;5056252;28;20392;-79
2021/12/03 01:29:48;;;;;;;4.47;1.10;;;;;;;2.19;91.47;101161.50;5023640;28;20082;-79
2021/12/03 01:32:14;;;;;;;3.40;1.13;;;;;;;2.19;91.22;101168.41;5057898;28;20056;-79
2021/12/03 01:34:40;;;;;;;9.48;1.02;;;;;;;2.18;91.25;101171.84;5039757;28;20041;-79
2021/12/03 01:37:06;;;;;;;1.05;0.90;;;;;;;2.18;91.17;101169.25;5040006;28;20044;-79
2021/12/03 01:39:32;;;;;;;1.85;1.00;;;;;;;2.17;91.14;101168.41;5040054;28;20029;-79
2021/12/03 01:41:57;;;;;;;4.53;1.10;;;;;;;2.20;91.31;101170.09;5053379;28;20031;-79
2021/12/03 01:44:23;;;;;;;7.28;1.20;;;;;;;2.21;91.35;101177.00;5039789;28;20331;-79
2021/12/03 01:46:48;;;;;;;1.50;0.95;;;;;;;2.21;91.34;101172.69;5038818;28;20040;-79
2021/12/03 01:49:14;;;;;;;1.23;0.85;;;;;;;2.21;91.45;101166.66;5055338;28;20252;-79
2021/12/03 01:51:41;;;;;;;3.58;0.98;;;;;;;2.23;91.25;101155.47;5039686;28;20039;-79
2021/12/03 01:54:06;;;;;;;4.63;1.20;;;;;;;2.27;91.46;101161.47;5025979;28;20055;-79
2021/12/03 01:56:31;;;;;;;2.40;1.23;;;;;;;2.26;91.62;101155.47;5023370;28;20025;-79
2021/12/03 01:58:57;;;;;;;2.42;0.88;;;;;;;2.29;91.60;101149.41;5040282;28;20049;-79
2021/12/03 02:01:25;;;;;;;2.00;0.82;;;;;;;2.29;91.69;101144.25;5039026;28;20064;-79
2021/12/03 02:03:53;;;;;;;1.88;1.00;;;;;;;2.30;91.93;101148.56;5038956;28;20071;-79
2021/12/03 02:06:18;;;;;;;7.97;1.20;;;;;;;2.34;91.89;101139.94;5022800;28;20095;-79
2021/12/03 02:08:44;;;;;;;5.13;1.20;;;;;;;2.34;91.93;101121.00;5040077;28;20096;-79
2021/12/03 02:11:09;;;;;;;1.50;0.80;;;;;;;2.33;91.81;101122.72;5057543;28;20245;-79
2021/12/03 02:13:35;;;;;;;4.35;1.35;;;;;;;2.33;91.92;101112.38;5039625;28;20049;-79
2021/12/03 02:16:01;;;;;;;4.07;1.02;;;;;;;2.34;91.77;101121.00;5039463;28;20037;-79
2021/12/03 02:18:26;;;;;;;3.75;1.20;;;;;;;2.33;91.84;101124.41;5022921;28;20036;-79
2021/12/03 02:20:52;;;;;;;2.33;0.80;;;;;;;2.32;91.76;101133.91;5055898;28;20029;-79
2021/12/03 02:23:18;;;;;;;4.47;1.30;;;;;;;2.33;91.58;101150.28;5023744;28;20363;-79
2021/12/03 02:25:43;;;;;;;8.00;1.20;;;;;;;2.32;91.68;101148.56;5039180;28;20052;-79
2021/12/03 02:28:09;;;;;;;5.15;1.00;;;;;;;2.31;91.72;101142.53;5057690;28;20053;-79
2021/12/03 02:30:35;;;;;;;6.45;0.90;;;;;;;2.30;91.85;101146.84;5025127;28;20318;-79
2021/12/03 02:33:00;;;;;;;3.70;0.90;;;;;;;2.29;91.78;101142.53;5026493;28;20328;-79
2021/12/03 02:35:26;;;;;;;9.02;1.02;;;;;;;2.29;92.16;101144.25;5056319;28;20037;-79
2021/12/03 02:37:51;;;;;;;3.08;0.70;;;;;;;2.29;92.18;101150.28;5027725;28;20025;-79
2021/12/03 02:40:16;;;;;;;2.78;0.93;;;;;;;2.30;92.11;101135.63;5043665;28;20057;-79
2021/12/03 02:42:43;;;;;;;5.47;0.70;;;;;;;2.31;92.16;101137.38;5026673;28;20355;-79
2021/12/03 02:45:09;;;;;;;3.05;0.95;;;;;;;2.30;92.13;101136.50;5027224;28;20044;-79
2021/12/03 02:47:34;;;;;;;1.70;1.05;;;;;;;2.32;92.29;101123.56;5054799;28;20033;-79
2021/12/03 02:50:00;;;;;;;2.15;0.60;;;;;;;2.31;92.06;101127.03;5043261;28;20297;-79
2021/12/03 02:52:26;;;;;;;2.40;0.73;;;;;;;2.34;92.24;101124.44;5042379;28;20100;-79
2021/12/03 02:54:51;;;;;;;6.07;1.80;;;;;;;2.34;92.25;101129.59;5055817;28;20036;-79
2021/12/03 02:57:17;;;;;;;2.63;1.02;;;;;;;2.38;92.48;101123.53;5042986;28;20043;-79
2021/12/03 02:59:42;;;;;;;6.07;0.90;;;;;;;2.40;92.35;101128.72;5042954;28;20095;-79
2021/12/03 03:02:07;;;;;;;2.05;0.60;;;;;;;2.41;92.41;101135.63;5075357;28;20028;-79
2021/12/03 03:04:33;;;;;;;4.00;0.93;;;;;;;2.41;92.51;101128.72;5055034;28;20036;-79
2021/12/03 03:06:59;;;;;;;2.50;0.70;;;;;;;2.41;92.35;101126.13;5009664;28;20033;-79
2021/12/03 03:09:25;;;;;;;3.88;1.27;;;;;;;2.43;92.34;101127.00;5042567;28;20037;-79
2021/12/03 03:11:51;;;;;;;7.72;1.15;;;;;;;2.42;92.39;101122.69;5047986;28;20119;-79
2021/12/03 03:14:17;;;;;;;5.72;0.75;;;;;;;2.42;92.39;101133.03;5042345;28;20037;-79
2021/12/03 03:16:42;;;;;;;8.45;0.80;;;;;;;2.40;92.41;101127.00;5041720;28;20235;-80
2021/12/03 03:19:19;;;;;;;3.30;1.15;;;;;;;2.40;92.53;101131.31;5008959;28;20032;-80
2021/12/03 03:21:44;;;;;;;2.75;0.60;;;;;;;2.39;92.79;101125.28;5041604;28;20063;-80
2021/12/03 03:24:10;;;;;;;6.38;1.05;;;;;;;2.40;92.91;101118.38;5028395;28;20060;-80
2021/12/03 03:26:36;;;;;;;6.65;1.52;;;;;;;2.40;93.14;101105.44;5024463;28;20047;-80
2021/12/03 03:29:04;;;;;;;4.95;0.93;;;;;;;2.40;93.03;101101.16;5059120;28;20467;-80
2021/12/03 03:31:29;;;;;;;1.50;0.80;;;;;;;2.41;93.11;101096.84;5058960;28;20052;-80
2021/12/03 03:33:55;;;;;;;7.43;0.80;;;;;;;2.42;93.25;101094.25;5039512;28;20035;-80
2021/12/03 03:36:20;;;;;;;6.78;1.17;;;;;;;2.44;93.26;101089.94;5058803;28;20029;-80
2021/12/03 03:38:45;;;;;;;4.78;1.00;;;;;;;2.47;93.49;101081.31;5059530;28;20217;-80
2021/12/03 03:41:11;;;;;;;4.13;1.00;;;;;;;2.48;93.47;101083.03;5023605;28;20029;-80
2021/12/03 03:43:36;;;;;;;8.10;1.42;;;;;;;2.47;93.73;101079.59;5024438;28;20044;-80
2021/12/03 03:46:02;;;;;;;1.83;1.10;;;;;;;2.49;93.63;101075.28;5024713;28;20028;-80
2021/12/03 03:48:27;;;;;;;6.65;1.15;;;;;;;2.52;93.62;101078.72;5023966;28;20262;-80
2021/12/03 03:50:53;;;;;;;8.13;1.40;;;;;;;2.52;93.84;101074.41;5024622;28;20051;-80
2021/12/03 03:53:18;;;;;;;5.05;1.10;;;;;;;2.53;93.63;101077.84;5040818;28;20036;-80
2021/12/03 03:55:45;;;;;;;9.05;1.33;;;;;;;2.54;93.68;101082.16;5024426;28;20043;-80
2021/12/03 03:58:10;;;;;;;5.55;1.35;;;;;;;2.57;94.00;101083.00;5024582;28;20029;-79
2021/12/03 04:00:39;;;;;;;8.38;1.60;;;;;;;2.59;93.91;101075.25;5056949;28;20047;-79
2021/12/03 04:03:05;;;;;;;6.22;1.35;;;;;;;2.60;94.29;101070.06;5040339;28;20029;-79
2021/12/03 04:05:31;;;;;;;5.93;1.25;;;;;;;2.63;94.36;101069.19;5040473;28;20051;-79
2021/12/03 04:07:56;;;;;;;4.68;1.67;;;;;;;2.65;94.47;101060.53;5058125;28;20040;-79
2021/12/03 04:10:22;;;;;;;5.50;1.08;;;;;;;2.67;94.37;101058.84;5023871;28;20043;-79
2021/12/03 04:12:47;;;;;;;4.88;0.95;;;;;;;2.72;94.54;101056.22;5040555;28;20064;-79
2021/12/03 04:15:13;;;;;;;8.32;1.30;;;;;;;2.75;94.52;101060.50;5024369;28;20091;-79
2021/12/03 04:17:38;;;;;;;4.65;1.48;;;;;;;2.76;94.38;101059.66;5058142;28;20236;-79
2021/12/03 04:20:06;;;;;;;7.32;1.42;;;;;;;2.76;94.77;101063.09;5024192;28;20103;-79
2021/12/03 04:22:32;;;;;;;6.63;1.30;;;;;;;2.77;94.76;101071.72;5040317;28;20045;-80
2021/12/03 04:24:58;;;;;;;5.25;1.42;;;;;;;2.78;94.74;101073.44;5024416;28;20291;-80
2021/12/03 04:27:23;;;;;;;5.40;1.52;;;;;;;2.78;94.64;101065.66;5039670;28;20033;-80
2021/12/03 04:29:49;;;;;;;7.55;1.63;;;;;;;2.78;94.76;101063.94;5023876;28;20359;-80
2021/12/03 04:32:15;;;;;;;7.28;1.60;;;;;;;2.80;94.54;101051.00;5023498;28;20063;-80
2021/12/03 04:34:41;;;;;;;9.02;1.70;;;;;;;2.79;94.41;101052.72;5024021;28;20021;-80
2021/12/03 04:37:06;;;;;;;9.77;1.60;;;;;;;2.79;94.67;101051.88;5023147;28;20085;-79
2021/12/03 04:39:32;;;;;;;10.35;2.10;;;;;;;2.78;94.41;101056.16;5039698;28;20040;-79
2021/12/03 04:41:57;;;;;;;6.95;2.00;;;;;;;2.79;94.49;101060.50;5023220;28;20317;-80
2021/12/03 04:44:23;;;;;;;4.35;1.55;;;;;;;2.78;94.46;101053.59;5040325;28;20045;-79
2021/12/03 04:46:49;;;;;;;6.65;1.77;;;;;;;2.79;94.46;101044.97;5057356;28;20049;-79
2021/12/03 04:49:14;;;;;;;4.72;1.50;;;;;;;2.81;94.76;101044.97;5040195;28;20091;-79
2021/12/03 04:51:40;;;;;;;3.45;1.85;;;;;;;2.81;94.66;101045.81;5044862;28;20045;-79
2021/12/03 04:54:05;;;;;;;9.07;1.98;;;;;;;2.81;94.63;101038.06;5040079;28;20033;-79
2021/12/03 04:56:30;;;;;;;8.48;2.10;;;;;;;2.82;94.75;101042.38;5039760;28;20463;-79
2021/12/03 04:58:56;;;;;;;7.32;2.25;;;;;;;2.82;94.75;101039.78;5040019;28;20040;-79
2021/12/03 05:01:21;;;;;;;8.05;2.20;;;;;;;2.83;94.66;101031.16;5039347;28;20048;-79
2021/12/03 05:03:47;;;;;;;6.80;2.10;;;;;;;2.84;94.82;101032.03;5039496;28;20402;-79
2021/12/03 05:06:16;;;;;;;6.47;2.60;;;;;;;2.85;94.91;101028.56;5039779;28;20048;-79
2021/12/03 05:08:41;;;;;;;15.10;3.20;;;;;;;2.86;94.77;101025.97;5044999;28;20033;-79
2021/12/03 05:11:07;;;;;;;8.43;2.97;;;;;;;2.87;94.91;101025.09;5039077;28;20040;-79
2021/12/03 05:13:33;;;;;;;9.05;3.47;;;;;;;2.88;94.93;101025.97;5039670;28;20028;-79
2021/12/03 05:15:59;;;;;;;7.57;3.25;;;;;;;2.88;94.97;101018.19;5006388;28;20036;-80
2021/12/03 05:18:27;;;;;;;10.05;3.15;;;;;;;2.89;95.02;101027.66;5039167;28;20043;-80
2021/12/03 05:20:53;;;;;;;9.93;3.05;;;;;;;2.89;94.95;101027.66;5056682;28;20075;-79
2021/12/03 05:23:19;;;;;;;15.35;3.53;;;;;;;2.90;95.03;101023.38;5022631;28;20029;-79
2021/12/03 05:25:44;;;;;;;9.02;2.65;;;;;;;2.91;94.83;101025.06;5026033;28;20033;-79
2021/12/03 05:28:09;;;;;;;10.75;2.80;;;;;;;2.92;94.89;101026.81;5020115;28;20049;-79
2021/12/03 05:30:36;;;;;;;11.68;3.50;;;;;;;2.91;94.97;101022.47;5039481;28;20037;-79
2021/12/03 05:33:02;;;;;;;7.60;2.83;;;;;;;2.92;94.92;101029.38;5022541;28;20041;-79
2021/12/03 05:35:27;;;;;;;10.80;3.47;;;;;;;2.91;94.86;101025.06;5056923;28;20131;-79
2021/12/03 05:37:53;;;;;;;12.30;3.95;;;;;;;2.91;95.02;101027.66;5022550;28;20036;-79
2021/12/03 05:40:18;;;;;;;11.32;3.35;;;;;;;2.92;94.98;101029.38;5022908;28;20083;-79
2021/12/03 05:42:45;;;;;;;11.40;3.50;;;;;;;2.92;95.00;101014.72;5038943;28;20059;-79
2021/12/03 05:45:12;;;;;;;11.60;3.33;;;;;;;2.90;94.91;101019.03;5023698;28;20352;-79
2021/12/03 05:47:37;;;;;;;8.82;3.92;;;;;;;2.92;95.04;101014.72;5021384;28;20044;-79
2021/12/03 05:50:04;;;;;;;13.27;3.20;;;;;;;2.92;95.07;101012.13;5039108;28;20041;-79
2021/12/03 05:52:29;;;;;;;15.07;3.40;;;;;;;2.92;95.10;100990.59;5022276;28;20040;-79
2021/12/03 05:54:55;;;;;;;11.63;3.35;;;;;;;2.92;94.99;101000.94;5039441;28;20116;-79
2021/12/03 05:57:20;;;;;;;19.60;3.53;;;;;;;2.93;95.11;101006.09;5038970;28;20047;-80
2021/12/03 05:59:46;;;;;;;10.63;2.88;;;;;;;2.94;95.10;101004.34;5057079;28;20040;-80
2021/12/03 06:02:11;;;;;;;16.77;3.63;;;;;;;2.95;95.00;101006.06;5039087;28;20017;-80
2021/12/03 06:04:37;;;;;;;8.73;3.22;;;;;;;2.95;95.07;101000.88;5061639;28;20041;-79
2021/12/03 06:07:03;;;;;;;7.30;2.60;;;;;;;2.95;94.90;101009.53;5026446;28;20041;-79
2021/12/03 06:09:29;;;;;;;9.60;2.70;;;;;;;2.95;94.91;101009.53;5020039;28;20235;-79
2021/12/03 06:11:54;;;;;;;9.80;2.90;;;;;;;2.97;94.78;101010.38;5060841;28;20079;-80
2021/12/03 06:14:20;;;;;;;9.90;2.75;;;;;;;2.98;94.88;101011.22;5060689;28;20041;-80
2021/12/03 06:16:45;;;;;;;14.23;2.33;;;;;;;2.99;94.78;101016.41;5026581;28;20394;-80
2021/12/03 06:19:11;;;;;;;8.50;2.63;;;;;;;3.00;94.68;101014.66;5053616;28;20332;-80
2021/12/03 06:21:36;;;;;;;7.30;2.70;;;;;;;3.02;94.39;101020.69;5026305;28;20136;-80
2021/12/03 06:24:01;;;;;;;8.90;2.72;;;;;;;3.03;94.52;101017.22;5042832;28;20378;-80
2021/12/03 06:26:27;;;;;;;22.30;3.25;;;;;;;3.02;94.26;101020.69;5042720;28;20044;-80
2021/12/03 06:28:52;;;;;;;11.90;3.35;;;;;;;3.02;93.89;101015.50;5042160;28;20275;-79
2021/12/03 06:31:18;;;;;;;7.43;2.42;;;;;;;3.02;93.68;101011.22;5042727;28;20041;-79
2021/12/03 06:33:43;;;;;;;18.30;3.80;;;;;;;3.02;93.65;101012.91;5026229;28;20044;-79
2021/12/03 06:36:09;;;;;;;11.75;3.15;;;;;;;3.02;93.32;101007.75;5042217;28;20044;-80
2021/12/03 06:38:38;;;;;;;15.35;3.80;;;;;;;3.02;93.21;101015.50;5040976;28;20368;-80
2021/12/03 06:41:03;;;;;;;;;;;;;;;3.01;93.23;101011.22;5020235;28;20032;-80
2021/12/03 06:43:29;;;;;;;11.47;3.37;;;;;;;3.00;93.06;101007.78;5041342;28;20217;-80
2021/12/03 06:45:54;;;;;;;13.27;3.05;;;;;;;3.01;92.99;101013.81;5023592;28;20322;-80
2021/12/03 06:48:20;;;;;;;12.63;3.22;;;;;;;3.00;93.10;101004.31;5020619;28;20325;-80
2021/12/03 06:50:48;;;;;;;14.82;4.03;;;;;;;3.00;92.89;100999.13;5034439;28;20047;-80
2021/12/03 06:53:15;;;;;;;26.63;4.40;;;;;;;3.00;92.83;100988.78;5072673;28;20039;-80
2021/12/03 06:55:48;;;;;;;11.88;3.55;;;;;;;2.98;92.74;100980.19;5025571;28;20075;-79
2021/12/03 06:58:14;;;;;;;11.55;2.75;;;;;;;2.98;92.59;100980.19;5007881;28;20049;-80
2021/12/03 07:00:40;;;;;;;12.75;3.50;;;;;;;2.96;92.32;100985.34;5015251;28;20327;-80
2021/12/03 07:03:05;;;;;;;9.88;3.20;;;;;;;2.95;92.13;100985.38;5024345;28;20111;-80
2021/12/03 07:05:31;;;;;;;13.77;3.60;;;;;;;2.93;91.92;100985.41;5024244;28;20386;-80
2021/12/03 07:07:56;;;;;;;16.65;4.88;;;;;;;2.92;91.80;100985.41;5040399;28;20029;-80
2021/12/03 07:10:22;;;;;;;10.10;3.50;;;;;;;2.88;91.56;100988.00;5024625;28;20052;-80
2021/12/03 07:12:47;;;;;;;8.00;3.38;;;;;;;2.86;91.25;100999.25;5041309;28;20142;-80
2021/12/03 07:15:12;;;;;;;11.65;3.63;;;;;;;2.85;91.21;101000.09;5024101;28;20103;-80
2021/12/03 07:17:38;;;;;;;19.20;4.28;;;;;;;2.84;91.28;100990.63;5040479;28;20033;-79
2021/12/03 07:20:04;;;;;;;12.80;3.67;;;;;;;2.84;91.35;100998.41;5024400;28;20364;-80
2021/12/03 07:22:30;;;;;;;13.55;4.75;;;;;;;2.82;91.06;100993.22;5057983;28;20210;-80
2021/12/03 07:24:56;;;;;;;11.20;4.47;;;;;;;2.79;91.12;100982.03;5057999;28;20047;-80
2021/12/03 07:27:21;;;;;;;14.98;3.50;;;;;;;2.80;91.12;100978.56;5007911;28;20035;-80
2021/12/03 07:29:48;;;;;;;26.40;4.05;;;;;;;2.80;91.18;100965.63;5040530;28;20049;-80
2021/12/03 07:32:20;;;;;;;21.38;3.78;;;;;;;2.78;90.93;100986.34;5054919;28;20078;-80
2021/12/03 07:34:46;;;;;;;17.55;4.90;;;;;;;2.79;91.13;100985.47;5035578;28;20103;-80
2021/12/03 07:37:11;;;;;;;10.15;4.13;;;;;;;2.81;91.34;100972.53;5009797;28;20217;-80
2021/12/03 07:39:37;;;;;;;14.70;4.20;;;;;;;2.80;91.35;100976.88;5040550;28;20112;-80
2021/12/03 07:42:03;;;;;;;13.60;4.35;;;;;;;2.81;91.22;100977.72;5024168;28;20332;-80
2021/12/03 07:44:29;;;;;;;7.20;3.63;;;;;;;2.81;91.04;100982.88;5041006;28;20036;-80
2021/12/03 07:46:54;;;;;;;14.75;4.13;;;;;;;2.77;90.42;100968.25;5041586;28;20041;-80
2021/12/03 07:49:21;;;;;;;14.90;4.43;;;;;;;2.78;90.43;100967.38;5021635;28;20094;-80
2021/12/03 07:51:47;;;;;;;12.13;3.60;;;;;;;2.75;90.33;100968.28;5021901;28;20116;-80
2021/12/03 07:54:12;;;;;;;10.75;4.07;;;;;;;2.74;90.36;100963.94;5035486;28;20032;-80
2021/12/03 07:56:38;;;;;;;11.30;3.80;;;;;;;2.72;90.15;100968.28;5051049;28;20082;-80
2021/12/03 07:59:04;;;;;;;12.43;4.15;;;;;;;2.74;90.37;100965.69;5041511;28;20039;-80
2021/12/03 08:01:29;;;;;;;12.18;3.58;;;;;;;2.73;90.28;100967.44;5041234;28;20048;-80
2021/12/03 08:03:55;;;;;;;12.57;3.75;;;;;;;2.71;89.88;100964.00;5040758;28;20378;-81
2021/12/03 08:06:20;;;;;;;10.93;3.90;;;;;;;2.70;90.09;100957.09;5056291;28;20037;-81
2021/12/03 08:08:46;;;;;;;14.35;4.40;;;;;;;2.70;90.34;100959.69;5056115;28;20045;-81
2021/12/03 08:11:11;;;;;;;7.88;3.97;;;;;;;2.67;90.27;100950.22;5036770;28;20037;-81
2021/12/03 08:13:37;;;;;;;9.00;4.05;;;;;;;2.68;90.29;100945.91;5038856;28;20344;-81
2021/12/03 08:16:03;;;;;;;15.10;4.40;;;;;;;2.68;90.42;100941.56;5021041;28;20205;-81
2021/12/03 08:18:28;;;;;;;9.48;4.32;;;;;;;2.69;90.52;100943.31;5020424;28;20261;-81
2021/12/03 08:20:54;;;;;;;14.15;4.55;;;;;;;2.71;90.67;100943.31;5021651;28;20033;-81
2021/12/03 08:23:19;;;;;;;12.20;3.95;;;;;;;2.72;90.74;100957.94;5038824;28;20303;-81
2021/12/03 08:25:45;;;;;;;15.55;4.40;;;;;;;2.70;90.48;100939.00;5018078;28;20036;-81
2021/12/03 08:28:10;;;;;;;15.45;4.35;;;;;;;2.71;90.47;100935.53;5034868;28;20036;-81
2021/12/03 08:30:35;;;;;;;11.68;4.00;;;;;;;2.71;90.58;100929.50;5006564;28;20048;-81
2021/12/03 08:33:01;;;;;;;14.15;3.97;;;;;;;2.69;90.68;100932.97;5037319;28;20043;-81
2021/12/03 08:35:27;;;;;;;10.70;3.53;;;;;;;2.67;90.65;100928.66;5039570;28;20210;-81
2021/12/03 08:37:52;;;;;;;13.90;3.40;;;;;;;2.70;91.05;100918.31;5018085;28;20260;-81
2021/12/03 08:40:19;;;;;;;9.23;3.47;;;;;;;2.71;91.06;100912.28;5019023;28;20056;-81
2021/12/03 08:42:44;;;;;;;17.55;3.33;;;;;;;2.71;90.73;100919.16;5038266;28;20283;-81
2021/12/03 08:45:10;;;;;;;11.75;2.40;;;;;;;2.72;90.72;100926.06;5038129;28;20033;-81
2021/12/03 08:47:36;;;;;;;9.40;2.60;;;;;;;2.70;90.65;100915.72;5039473;28;20086;-82
2021/12/03 08:50:06;;;;;;;12.85;3.45;;;;;;;2.72;90.41;100926.91;5057936;28;20356;-82
2021/12/03 08:55:16;;;;;;;10.35;3.10;;;;;;;2.74;90.66;100917.41;5040847;28;20394;-81
2021/12/03 08:57:41;;;;;;;5.80;2.60;;;;;;;2.76;90.55;100907.03;5038712;28;20037;-81
2021/12/03 09:00:12;;;;;;;8.48;2.33;;;;;;;2.75;90.62;100908.78;5056245;28;20036;-81
2021/12/03 09:02:39;;;;;;;7.18;2.40;;;;;;;2.75;90.48;100905.31;5038361;28;20041;-81
2021/12/03 09:05:04;;;;;;;8.45;3.40;;;;;;;2.75;90.43;100903.63;5022221;28;20033;-81
2021/12/03 09:07:30;;;;;;;10.80;3.25;;;;;;;2.77;90.21;100891.53;5006067;28;20047;-81
2021/12/03 09:09:55;;;;;;;8.85;3.42;;;;;;;2.79;90.25;100892.38;5038591;28;20040;-81
2021/12/03 09:12:21;;;;;;;12.23;3.00;;;;;;;2.81;90.53;100885.44;5038935;28;20337;-81
2021/12/03 09:14:52;;;;;;;5.97;2.50;;;;;;;2.84;90.72;100888.03;5005750;28;20527;-81
2021/12/03 09:17:31;;;;;;;9.95;2.55;;;;;;;2.85;90.58;100879.38;5021502;28;20091;-81
2021/12/03 09:25:07;;;;;;;11.40;3.08;;;;;;;2.83;90.42;100872.50;5039010;28;20279;-81
2021/12/03 09:27:33;;;;;;;10.23;3.40;;;;;;;2.83;90.48;100867.34;5022305;28;20034;-81
2021/12/03 09:29:58;;;;;;;12.52;3.78;;;;;;;2.82;90.38;100861.31;5030831;28;20352;-81
2021/12/03 09:32:27;;;;;;;12.77;3.35;;;;;;;2.83;90.33;100867.34;5029760;28;20064;-81
2021/12/03 09:34:53;;;;;;;;;;;;;;;2.83;90.44;100868.19;5014941;28;20029;-81
2021/12/03 09:37:18;;;;;;;12.40;4.18;;;;;;;2.81;89.94;100859.59;5030822;28;19930;-81
2021/12/03 09:39:45;;;;;;;25.45;4.40;;;;;;;2.81;90.72;100857.00;5050140;28;20049;-82
2021/12/03 09:42:12;;;;;;;17.58;3.60;;;;;;;2.81;90.51;100869.06;5018947;28;20044;-81
2021/12/03 09:44:39;;;;;;;12.07;3.70;;;;;;;2.80;90.58;100859.59;5033919;28;20029;-81
2021/12/03 09:47:05;;;;;;;20.50;4.80;;;;;;;2.79;90.47;100853.56;5015936;28;20469;-81
2021/12/03 09:49:34;;;;;;;11.23;3.40;;;;;;;2.77;90.29;100850.13;5018558;28;20036;-81
2021/12/03 09:57:03;;;;;;;17.05;4.65;;;;;;;2.74;90.67;100844.97;5012125;28;20082;-81
2021/12/03 10:00:18;;;;;;;18.17;4.20;;;;;;;2.73;90.87;100843.28;5035926;28;20040;-81
2021/12/03 10:02:53;;;;;;;12.65;3.92;;;;;;;2.73;91.31;100835.53;5010281;28;20257;-81
2021/12/03 10:11:38;;;;;;;19.25;6.03;;;;;;;2.69;91.52;100816.59;5036158;28;20039;-81
2021/12/03 10:18:51;;;;;;;19.15;5.20;;;;;;;2.74;92.24;100806.19;5037206;28;20236;-81
2021/12/03 10:40:25;;;;;;;15.90;4.65;;;;;;;2.83;93.14;100762.13;5035060;28;20041;-81
2021/12/03 10:48:48;;;;;;;20.98;5.30;;;;;;;2.93;93.25;100759.44;5034082;28;20040;-80
2021/12/03 10:51:33;;;;;;;18.80;5.05;;;;;;;2.93;92.99;100762.03;5018766;28;20276;-78
2021/12/03 10:54:07;;;;;;;22.13;5.00;;;;;;;2.95;93.17;100760.28;5017975;28;20407;-80
2021/12/03 11:37:35;;;;;;;13.52;4.43;;;;;;;3.08;92.71;100663.56;5008830;28;20414;-80
2021/12/03 13:23:51;;;;;;;17.10;6.55;;;;;;;3.43;92.88;100514.66;5050945;28;20040;-80
2021/12/03 14:40:34;;;;;;;8.55;4.70;;;;;;;3.52;94.81;100491.19;5028961;28;20112;-80
2021/12/03 15:11:39;;;;;;;4.45;4.15;;;;;;;3.56;95.54;100472.13;5032775;28;20065;-80
2021/12/03 15:21:54;;;;;;;5.47;4.97;;;;;;;3.60;95.77;100460.00;5027882;28;20041;-80
2021/12/03 15:32:36;;;;;;;6.35;5.63;;;;;;;3.63;95.97;100449.59;5043454;28;20044;-80
2021/12/03 16:04:36;;;;;;;12.07;9.25;;;;;;;3.71;96.34;100406.28;5025930;28;20071;-80
2021/12/03 16:18:04;;;;;;;12.93;10.82;;;;;;;3.75;96.33;100396.72;5049679;28;20048;-80
2021/12/03 16:47:55;;;;;;;20.25;15.15;;;;;;;3.79;96.28;100396.59;5030855;28;20033;-80
2021/12/03 16:53:05;;;;;;;20.92;15.68;;;;;;;3.81;96.22;100399.19;5034282;28;20052;-80
2021/12/03 16:55:31;;;;;;;22.90;15.77;;;;;;;3.81;96.00;100389.66;5005591;28;20049;-80
2021/12/03 16:57:56;;;;;;;21.52;15.20;;;;;;;3.81;95.90;100373.28;5048735;28;20047;-80
2021/12/03 17:24:38;;;;;;;28.85;18.20;;;;;;;3.85;96.37;100323.09;5031518;28;20048;-80
2021/12/03 17:56:02;;;;;;;50.92;29.67;;;;;;;3.87;96.17;100323.06;5010696;28;20155;-80
2021/12/03 18:04:03;;;;;;;35.03;22.40;;;;;;;3.88;96.25;100328.22;5053793;28;20045;-80
2021/12/03 18:11:28;;;;;;;36.13;22.75;;;;;;;3.91;96.18;100311.75;5035444;28;20041;-80
2021/12/03 18:52:13;;;;;;;22.83;16.67;;;;;;;3.96;96.45;100321.13;5035935;28;20048;-80
2021/12/03 18:54:43;;;;;;;21.27;16.48;;;;;;;3.97;96.57;100322.84;5051662;28;20895;-80
2021/12/03 18:57:14;;;;;;;21.15;15.57;;;;;;;3.97;96.33;100325.44;5012010;28;20033;-80
2021/12/03 18:59:51;;;;;;;25.50;16.80;;;;;;;3.99;96.32;100328.00;5018152;28;20033;-80
2021/12/03 19:02:16;;;;;;;23.45;17.35;;;;;;;3.97;96.26;100328.03;5004017;28;20041;-80
2021/12/03 19:05:12;;;;;;;21.25;15.68;;;;;;;3.97;96.62;100322.00;5023283;28;20100;-80
2021/12/03 19:07:57;;;;;;;20.13;16.17;;;;;;;3.96;96.57;100321.13;5031114;28;20104;-79
2021/12/03 19:10:21;;;;;;;20.27;15.38;;;;;;;3.96;96.51;100325.47;5041745;28;20050;-79
2021/12/03 19:12:55;;;;;;;25.45;16.00;;;;;;;3.96;96.65;100315.94;5043932;28;20269;-80
2021/12/03 19:15:20;;;;;;;25.83;16.92;;;;;;;3.96;96.57;100308.16;5027019;28;20039;-79
2021/12/03 19:17:48;;;;;;;23.63;18.05;;;;;;;3.96;96.63;100305.56;5042463;28;20041;-80
2021/12/03 19:20:16;;;;;;;21.85;15.30;;;;;;;3.97;96.62;100304.69;5057180;28;20087;-80
2021/12/03 19:22:42;;;;;;;28.58;20.52;;;;;;;3.97;96.64;100298.69;5044004;28;20039;-80
2021/12/03 19:25:07;;;;;;;21.48;16.98;;;;;;;3.97;96.57;100290.91;5042271;28;20202;-79
2021/12/03 19:27:33;;;;;;;23.20;16.15;;;;;;;3.97;96.59;100285.72;5026198;28;20214;-80
2021/12/03 19:30:00;;;;;;;23.75;16.42;;;;;;;3.97;96.62;100286.56;5059632;28;20040;-80
2021/12/03 19:32:27;;;;;;;21.95;15.77;;;;;;;3.97;96.66;100270.19;5041889;28;20033;-79
2021/12/03 19:34:52;;;;;;;19.33;15.40;;;;;;;3.97;96.81;100273.63;5042654;28;20037;-80